Portada
METAR-TAF:

METAR-TAF

Aeroports :

Chiang Mai, Tailàndia

latitud: 18-47N, longitud: 098-59E, altitud: 312 m

Observació

L'informe es va fer fa 39 minuts, a les 10:30 UTC
Vent 4 kt del Sud, variant entre Sud/Sud-Est i Sud-Oest
Temperatura 31°C
Humitat 59%
Pressió 1011 hPa
Visibilitat 10 km o més
Escasses núvols a una alçada de 3500 ft

METAR: VTCC 121030Z 19004KT 160V230 9999 FEW035 31/22 Q1011 NOSIG

Hora: 18:09 (11:09 UTC)

Pronòstic

L'informe es va fer fa 6 hores i 9 minuts, a les 05:00 UTC
Pronòstic vàlid del 12 a les 06 UTC al 13 a les 12 UTC
Vent 5 kt del Sud/Sud-Est
Visibilitat: 9000 m
Escasses núvols a una alçada de 3500 ft

TAF: VTCC 120500Z 1206/1312 16005KT 9000 FEW035

Observacions i pronòstics meteorològics de més de 4000 aeroports (METAR i TAF).

Les estacions disponibles són els punts grocs i vermells al mapa.

Posi el ratolí al punt desitjat per veure el nom de l'estació.

Feu clic per veure les observacions i els pronòstics meteorològics.

Per canviar el mapa: feu clic els botons verds amb una creu de color negre per apropar; al botó verd amb un guió per allunyar la imatge; o en les fletxes verdes per a mapes adjacents.


METAR-TAF: